Time;durP1;ratioP1;P1;durP2;ratioP2;P2;SDS_P1;SDS_P2;PMS_P1;PMS_P2;Temp;Humidity;BMP_temperature;BMP_pressure;BME280_temperature;BME280_humidity;BME280_pressure;Samples;Min_cycle;Max_cycle;Signal;HPM_P1;HPM_P2
2023/07/01 00:00:58;;;;;;;;;;;;;;;21.29;42.75;100692.41;5321430;27;20438;-68
2023/07/01 00:03:30;;;;;;;;;;;;;;;21.25;42.91;100685.84;5326246;27;19919;-68
2023/07/01 00:06:02;;;;;;;;;;;;;;;21.25;42.98;100680.50;5320852;27;19915;-68
2023/07/01 00:08:33;;;;;;;;;;;;;;;21.23;43.07;100682.56;5326694;27;19921;-68
2023/07/01 00:11:05;;;;;;;;;;;;;;;21.22;43.16;100672.94;5324042;27;19915;-66
2023/07/01 00:13:36;;;;;;;;;;;;;;;21.23;43.25;100671.91;5329502;27;19927;-68
2023/07/01 00:16:07;;;;;;;;;;;;;;;21.22;43.21;100667.63;5321891;27;19922;-67
2023/07/01 00:18:40;;;;;;;;;;;;;;;21.17;43.53;100665.53;5325610;27;19927;-68
2023/07/01 00:21:11;;;;;;;;;;;;;;;21.16;43.63;100655.09;5326239;27;19915;-68
2023/07/01 00:23:42;;;;;;;;;;;;;;;21.17;43.68;100656.75;5322480;27;19911;-68
2023/07/01 00:26:13;;;;;;;;;;;;;;;21.16;44.04;100652.44;5320966;27;19956;-68
2023/07/01 00:28:44;;;;;;;;;;;;;;;21.13;43.89;100651.00;5328136;27;19912;-68
2023/07/01 00:31:16;;;;;;;;;;;;;;;21.11;44.32;100643.22;5326117;27;19928;-68
2023/07/01 00:33:47;;;;;;;;;;;;;;;21.12;44.22;100641.38;5325277;27;19911;-68
2023/07/01 00:36:18;;;;;;;;;;;;;;;21.12;44.42;100636.84;5325141;27;20287;-68
2023/07/01 00:38:49;;;;;;;;;;;;;;;21.11;44.78;100629.09;5328391;27;19926;-68
2023/07/01 00:41:21;;;;;;;;;;;;;;;21.10;44.26;100628.28;5323726;27;19962;-68
2023/07/01 00:43:52;;;;;;;;;;;;;;;21.08;45.23;100627.63;5328969;27;19915;-68
2023/07/01 00:46:23;;;;;;;;;;;;;;;21.05;45.37;100629.88;5327026;27;19919;-68
2023/07/01 00:48:54;;;;;;;;;;;;;;;21.08;45.46;100627.63;5325779;27;19962;-67
2023/07/01 00:51:28;;;;;;;;;;;;;;;21.11;45.93;100626.41;5325906;27;19914;-67
2023/07/01 00:54:00;;;;;;;;;;;;;;;21.11;45.60;100624.56;5319918;27;20290;-68
2023/07/01 00:56:31;;;;;;;;;;;;;;;21.08;46.69;100627.63;5328971;27;19919;-67
2023/07/01 00:59:02;;;;;;;;;;;;;;;21.01;47.28;100618.81;5327564;27;20517;-68
2023/07/01 01:01:35;;;;;;;;;;;;;;;20.96;47.57;100615.16;5326123;27;20401;-68
2023/07/01 01:04:29;;;;;;;;;;;;;;;20.93;47.84;100611.03;5324530;27;19911;-65
2023/07/01 01:07:03;;;;;;;;;;;;;;;20.89;47.23;100607.13;5325443;27;19919;-68
2023/07/01 01:09:48;;;;;;;;;;;;;;;20.86;47.77;100599.56;5325461;27;20312;-67
2023/07/01 01:12:20;;;;;;;;;;;;;;;20.86;47.66;100602.22;5326740;27;19911;-68
2023/07/01 01:14:52;;;;;;;;;;;;;;;20.84;47.93;100593.63;5315546;27;19915;-68
2023/07/01 01:17:24;;;;;;;;;;;;;;;20.85;48.13;100597.94;5324754;27;20042;-68
2023/07/01 01:19:58;;;;;;;;;;;;;;;20.85;48.33;100589.94;5328724;27;19922;-66
2023/07/01 01:22:38;;;;;;;;;;;;;;;20.84;48.97;100589.13;5323558;27;20006;-68
2023/07/01 01:25:12;;;;;;;;;;;;;;;20.86;48.59;100587.06;5324224;27;20323;-68
2023/07/01 01:27:44;;;;;;;;;;;;;;;20.85;48.98;100582.75;5323287;27;20300;-65
2023/07/01 01:30:16;;;;;;;;;;;;;;;20.87;48.84;100580.72;5320578;27;19912;-68
2023/07/01 01:32:47;;;;;;;;;;;;;;;20.81;50.11;100584.19;5322363;27;19916;-68
2023/07/01 01:35:18;;;;;;;;;;;;;;;20.81;51.14;100584.19;5319808;27;19965;-66
2023/07/01 01:38:04;;;;;;;;;;;;;;;20.80;52.94;100577.25;5323559;27;19916;-66
2023/07/01 01:40:53;;;;;;;;;;;;;;;20.78;52.13;100573.94;5326605;27;19911;-68
2023/07/01 01:43:42;;;;;;;;;;;;;;;20.77;54.30;100571.50;5320041;27;19933;-68
2023/07/01 01:46:15;;;;;;;;;;;;;;;20.75;55.20;100571.69;5317389;27;19926;-66
2023/07/01 01:48:47;;;;;;;;;;;;;;;20.69;54.54;100564.53;5323194;27;19915;-68
2023/07/01 01:51:20;;;;;;;;;;;;;;;20.65;56.06;100561.47;5323206;27;19935;-67
2023/07/01 01:53:51;;;;;;;;;;;;;;;20.62;56.30;100559.19;5314663;28;20300;-67
2023/07/01 01:56:23;;;;;;;;;;;;;;;20.62;55.58;100564.50;5322626;28;19927;-66
2023/07/01 01:58:54;;;;;;;;;;;;;;;20.62;55.95;100561.03;5323116;28;19926;-68
2023/07/01 02:01:26;;;;;;;;;;;;;;;20.59;54.61;100548.94;5326183;28;19911;-67
2023/07/01 02:03:57;;;;;;;;;;;;;;;20.57;56.83;100556.34;5322137;28;19916;-69
2023/07/01 02:06:28;;;;;;;;;;;;;;;20.57;55.59;100553.66;5324245;28;19973;-67
2023/07/01 02:09:00;;;;;;;;;;;;;;;20.59;56.29;100550.78;5317384;28;19919;-68
2023/07/01 02:11:31;;;;;;;;;;;;;;;20.59;55.35;100553.44;5322466;28;19911;-69
2023/07/01 02:14:02;;;;;;;;;;;;;;;20.56;54.94;100544.03;5324247;28;19951;-67
2023/07/01 02:16:33;;;;;;;;;;;;;;;20.53;57.87;100548.94;5324675;27;19923;-68
2023/07/01 02:19:04;;;;;;;;;;;;;;;20.45;59.62;100547.25;5326727;28;19988;-69
2023/07/01 02:21:36;;;;;;;;;;;;;;;20.36;61.69;100543.97;5325619;28;19937;-69
2023/07/01 02:24:07;;;;;;;;;;;;;;;20.35;62.06;100541.53;5324211;28;20356;-68
2023/07/01 02:26:38;;;;;;;;;;;;;;;20.28;63.27;100538.84;5319341;28;19923;-67
2023/07/01 02:29:09;;;;;;;;;;;;;;;20.24;63.13;100524.31;5327875;28;19956;-66
2023/07/01 02:31:40;;;;;;;;;;;;;;;20.21;63.88;100519.38;5323848;28;19915;-67
2023/07/01 02:34:12;;;;;;;;;;;;;;;20.10;67.24;100511.97;5322990;28;19915;-68
2023/07/01 02:36:43;;;;;;;;;;;;;;;20.08;68.21;100514.03;5320299;28;20402;-67
2023/07/01 02:39:14;;;;;;;;;;;;;;;20.10;67.00;100512.78;5323573;28;20284;-68
2023/07/01 02:41:45;;;;;;;;;;;;;;;20.03;71.70;100506.63;5322308;28;19919;-67
2023/07/01 02:44:17;;;;;;;;;;;;;;;19.95;76.61;100504.16;5317019;28;20391;-67
2023/07/01 02:46:48;;;;;;;;;;;;;;;19.88;77.94;100509.44;5318393;28;19969;-68
2023/07/01 02:49:20;;;;;;;;;;;;;;;19.84;76.71;100497.56;5325665;28;19915;-66
2023/07/01 02:51:51;;;;;;;;;;;;;;;19.85;77.14;100511.69;5329183;28;20254;-68
2023/07/01 02:54:22;;;;;;;;;;;;;;;19.79;81.91;100509.84;5322233;28;19914;-68
2023/07/01 02:56:54;;;;;;;;;;;;;;;19.73;83.12;100505.31;5327017;28;19945;-68
2023/07/01 02:59:25;;;;;;;;;;;;;;;19.73;81.78;100498.16;5328910;27;19951;-67
2023/07/01 03:01:56;;;;;;;;;;;;;;;19.70;78.26;100493.25;5331878;27;19914;-68
2023/07/01 03:04:28;;;;;;;;;;;;;;;19.65;86.77;100496.47;5308059;27;20344;-67
2023/07/01 03:06:59;;;;;;;;;;;;;;;19.66;83.08;100491.97;5321263;27;20325;-68
2023/07/01 03:09:30;;;;;;;;;;;;;;;19.57;91.40;100498.47;5324770;27;19930;-68
2023/07/01 03:12:01;;;;;;;;;;;;;;;19.49;94.50;100485.34;5324500;27;19930;-67
2023/07/01 03:14:32;;;;;;;;;;;;;;;19.52;92.15;100488.44;5324461;27;19915;-68
2023/07/01 03:17:04;;;;;;;;;;;;;;;19.53;92.04;100483.94;5326120;27;19916;-67
2023/07/01 03:19:35;;;;;;;;;;;;;;;19.52;87.28;100485.78;5304053;27;19919;-67
2023/07/01 03:22:06;;;;;;;;;;;;;;;19.55;88.63;100480.06;5324184;27;19916;-67
2023/07/01 03:24:37;;;;;;;;;;;;;;;19.47;92.28;100477.56;5330657;27;19915;-68
2023/07/01 03:27:08;;;;;;;;;;;;;;;19.43;94.14;100471.00;5321633;27;19915;-68
2023/07/01 03:29:40;;;;;;;;;;;;;;;19.38;94.92;100460.16;5327410;27;19912;-68
2023/07/01 03:32:11;;;;;;;;;;;;;;;19.34;97.54;100469.53;5328810;27;19911;-67
2023/07/01 03:34:42;;;;;;;;;;;;;;;19.28;96.34;100459.69;5326973;27;19919;-68
2023/07/01 03:37:13;;;;;;;;;;;;;;;19.30;94.94;100461.13;5327770;27;20561;-65
2023/07/01 03:39:44;;;;;;;;;;;;;;;19.35;90.69;100465.84;5332728;27;20321;-68
2023/07/01 03:42:15;;;;;;;;;;;;;;;19.33;97.82;100460.75;5327055;27;20002;-69
2023/07/01 03:44:47;;;;;;;;;;;;;;;19.32;99.33;100458.28;5328858;27;19911;-67
2023/07/01 03:47:18;;;;;;;;;;;;;;;19.32;97.48;100456.47;5329981;27;19955;-68
2023/07/01 03:49:49;;;;;;;;;;;;;;;19.23;100.00;100452.31;5330269;27;19929;-68
2023/07/01 03:52:20;;;;;;;;;;;;;;;19.25;100.00;100452.94;5325838;27;19911;-67
2023/07/01 03:54:51;;;;;;;;;;;;;;;19.18;100.00;100452.09;5325533;27;19911;-68
2023/07/01 03:57:22;;;;;;;;;;;;;;;19.12;100.00;100447.56;5326519;27;20500;-66
2023/07/01 03:59:54;;;;;;;;;;;;;;;19.11;100.00;100451.22;5325882;27;19911;-67
2023/07/01 04:02:25;;;;;;;;;;;;;;;19.08;100.00;100443.66;5320891;27;20495;-67
2023/07/01 04:05:09;;;;;;;;;;;;;;;19.07;100.00;100439.38;5329152;27;19919;-68
2023/07/01 04:07:41;;;;;;;;;;;;;;;19.01;100.00;100440.94;5324451;27;19927;-64
2023/07/01 04:10:13;;;;;;;;;;;;;;;18.90;100.00;100428.22;5325908;27;19919;-64
2023/07/01 04:12:44;;;;;;;;;;;;;;;18.87;100.00;100437.41;5321775;27;19926;-66
2023/07/01 04:15:15;;;;;;;;;;;;;;;18.85;100.00;100425.34;5327450;27;19947;-67
2023/07/01 04:17:48;;;;;;;;;;;;;;;18.82;100.00;100420.41;5328127;27;19926;-67
2023/07/01 04:20:20;;;;;;;;;;;;;;;18.85;100.00;100422.69;5326544;27;19971;-64
2023/07/01 04:22:51;;;;;;;;;;;;;;;18.82;100.00;100426.53;5322948;27;19908;-66
2023/07/01 04:25:22;;;;;;;;;;;;;;;18.75;100.00;100420.34;5324339;27;19916;-66
2023/07/01 04:27:54;;;;;;;;;;;;;;;18.77;100.00;100425.50;5320844;27;19915;-66
2023/07/01 04:30:25;;;;;;;;;;;;;;;18.72;100.00;100418.13;5330376;27;20367;-65
2023/07/01 04:32:56;;;;;;;;;;;;;;;18.81;100.00;100410.81;5328285;27;19955;-66
2023/07/01 04:35:27;;;;;;;;;;;;;;;18.79;100.00;100405.72;5329172;27;20291;-66
2023/07/01 04:37:59;;;;;;;;;;;;;;;18.80;100.00;100417.97;5327845;27;19915;-65
2023/07/01 04:40:30;;;;;;;;;;;;;;;18.80;100.00;100404.69;5324095;27;20713;-66
2023/07/01 04:43:01;;;;;;;;;;;;;;;18.80;100.00;100406.53;5323266;27;19915;-66
2023/07/01 04:45:33;;;;;;;;;;;;;;;18.80;100.00;100404.69;5325106;27;20261;-66
2023/07/01 04:48:05;;;;;;;;;;;;;;;18.82;100.00;100400.00;5327499;27;19981;-67
2023/07/01 04:50:36;;;;;;;;;;;;;;;18.82;100.00;100402.66;5331180;27;20006;-66
2023/07/01 04:53:07;;;;;;;;;;;;;;;18.71;100.00;100401.38;5325839;27;20357;-68
2023/07/01 04:55:38;;;;;;;;;;;;;;;18.66;100.00;100402.94;5325685;27;19916;-66
2023/07/01 04:58:09;;;;;;;;;;;;;;;18.67;100.00;100394.75;5332427;27;19919;-67
2023/07/01 05:00:41;;;;;;;;;;;;;;;18.76;100.00;100397.31;5323799;27;19947;-67
2023/07/01 05:03:12;;;;;;;;;;;;;;;18.77;100.00;100380.38;5329558;27;20018;-67
2023/07/01 05:05:44;;;;;;;;;;;;;;;18.80;100.00;100382.66;5328690;27;20009;-67
2023/07/01 05:08:15;;;;;;;;;;;;;;;18.77;100.00;100380.38;5325196;27;19997;-67
2023/07/01 05:10:46;;;;;;;;;;;;;;;18.78;100.00;100387.31;5320810;27;19915;-67
2023/07/01 05:13:17;;;;;;;;;;;;;;;18.77;100.00;100388.34;5324351;27;19916;-67
2023/07/01 05:15:48;;;;;;;;;;;;;;;18.76;100.00;100379.56;5321348;27;19920;-67
2023/07/01 05:18:19;;;;;;;;;;;;;;;18.80;100.00;100380.81;5304597;27;19995;-66
2023/07/01 05:20:51;;;;;;;;;;;;;;;18.80;100.00;100383.47;5322347;27;19919;-67
2023/07/01 05:23:22;;;;;;;;;;;;;;;18.77;100.00;100381.19;5326594;27;19919;-67
2023/07/01 05:25:53;;;;;;;;;;;;;;;18.80;100.00;100382.66;5323357;27;19923;-67
2023/07/01 05:28:24;;;;;;;;;;;;;;;18.80;100.00;100388.78;5323259;27;20390;-67
2023/07/01 05:30:55;;;;;;;;;;;;;;;18.71;100.00;100379.31;5329521;27;19911;-65
2023/07/01 05:33:26;;;;;;;;;;;;;;;18.69;100.00;100378.66;5321319;27;20802;-67
2023/07/01 05:35:58;;;;;;;;;;;;;;;18.73;100.00;100374.63;5320230;27;19916;-66
2023/07/01 05:38:29;;;;;;;;;;;;;;;18.70;100.00;100372.34;5321145;27;20382;-65
2023/07/01 05:41:00;;;;;;;;;;;;;;;18.74;100.00;100367.50;5323591;27;20296;-67
2023/07/01 05:43:31;;;;;;;;;;;;;;;18.71;100.00;100374.00;5328333;27;19934;-67
2023/07/01 05:46:02;;;;;;;;;;;;;;;18.80;100.00;100370.19;5330476;27;19922;-67
2023/07/01 05:48:34;;;;;;;;;;;;;;;18.78;100.00;100372.22;5325089;27;19923;-67
2023/07/01 05:51:05;;;;;;;;;;;;;;;18.73;100.00;100371.97;5323017;27;20368;-66
2023/07/01 05:53:36;;;;;;;;;;;;;;;18.71;100.00;100366.88;5322982;27;19923;-67
2023/07/01 05:56:07;;;;;;;;;;;;;;;18.78;100.00;100371.41;5320872;28;19962;-67
2023/07/01 05:58:38;;;;;;;;;;;;;;;18.78;100.00;100369.56;5317987;28;19941;-65
2023/07/01 06:01:09;;;;;;;;;;;;;;;18.79;100.00;100368.56;5325019;28;19911;-67
2023/07/01 06:03:41;;;;;;;;;;;;;;;18.80;100.00;100361.41;5315487;28;19920;-66
2023/07/01 06:06:12;;;;;;;;;;;;;;;18.83;100.00;100366.34;5328575;28;19915;-68
2023/07/01 06:08:43;;;;;;;;;;;;;;;18.85;100.00;100359.81;5319443;28;19919;-66
2023/07/01 06:11:15;;;;;;;;;;;;;;;18.90;100.00;100359.19;5327130;28;19915;-65
2023/07/01 06:13:46;;;;;;;;;;;;;;;18.96;100.00;100355.78;5330545;28;19941;-67
2023/07/01 06:16:18;;;;;;;;;;;;;;;18.98;100.00;100355.56;5326066;28;19957;-64
2023/07/01 06:18:49;;;;;;;;;;;;;;;19.00;100.00;100362.31;5317795;28;19963;-67
2023/07/01 06:21:21;;;;;;;;;;;;;;;19.02;100.00;100357.66;5329458;27;19977;-67
2023/07/01 06:23:55;;;;;;;;;;;;;;;19.03;100.00;100359.28;5323335;28;19923;-67
2023/07/01 06:26:27;;;;;;;;;;;;;;;19.12;100.00;100349.31;5328572;28;19958;-67
2023/07/01 06:28:58;;;;;;;;;;;;;;;19.22;100.00;100359.56;5324794;28;19990;-67
2023/07/01 06:31:29;;;;;;;;;;;;;;;19.16;100.00;100342.59;5320578;28;19922;-66
2023/07/01 06:34:00;;;;;;;;;;;;;;;19.16;100.00;100351.34;5330117;27;19911;-66
2023/07/01 06:36:31;;;;;;;;;;;;;;;19.12;100.00;100347.47;5328640;27;19915;-64
2023/07/01 06:39:02;;;;;;;;;;;;;;;19.22;100.00;100351.59;5326670;27;20011;-67
2023/07/01 06:41:34;;;;;;;;;;;;;;;19.19;100.00;100350.97;5328509;27;19915;-66
2023/07/01 06:44:05;;;;;;;;;;;;;;;19.20;100.00;100343.81;5326064;27;19972;-67
2023/07/01 06:46:36;;;;;;;;;;;;;;;19.26;100.00;100344.88;5331599;27;19908;-68
2023/07/01 06:49:07;;;;;;;;;;;;;;;19.26;100.00;100353.66;5326990;27;20322;-65
2023/07/01 06:51:39;;;;;;;;;;;;;;;19.23;100.00;100347.91;5326677;27;19916;-68
2023/07/01 06:54:11;;;;;;;;;;;;;;;19.26;100.00;100347.53;5326115;27;19918;-66
2023/07/01 06:56:42;;;;;;;;;;;;;;;19.29;100.00;100341.81;5329640;27;20463;-67
2023/07/01 06:59:13;;;;;;;;;;;;;;;19.31;100.00;100337.94;5331315;27;19948;-65
2023/07/01 07:01:44;;;;;;;;;;;;;;;19.23;100.00;100348.75;5319061;27;20300;-67
2023/07/01 07:04:15;;;;;;;;;;;;;;;19.27;100.00;100349.16;5322676;27;19925;-66
2023/07/01 07:06:47;;;;;;;;;;;;;;;19.30;100.00;100349.59;5329700;27;19911;-66
2023/07/01 07:09:18;;;;;;;;;;;;;;;19.28;100.00;100348.13;5326064;27;19955;-67
2023/07/01 07:11:51;;;;;;;;;;;;;;;19.32;100.00;100342.25;5320654;27;20397;-66
2023/07/01 07:14:23;;;;;;;;;;;;;;;19.39;100.00;100343.06;5327325;27;20360;-63
2023/07/01 07:16:54;;;;;;;;;;;;;;;19.38;100.00;100337.97;5320747;27;19919;-67
2023/07/01 07:19:25;;;;;;;;;;;;;;;19.35;100.00;100339.16;5321706;27;19919;-68
2023/07/01 07:21:57;;;;;;;;;;;;;;;19.37;100.00;100344.31;5322170;27;19922;-67
2023/07/01 07:24:28;;;;;;;;;;;;;;;19.40;100.00;100339.41;5327740;27;19911;-66
2023/07/01 07:27:00;;;;;;;;;;;;;;;19.41;100.00;100335.72;5319815;27;19919;-65
2023/07/01 07:29:33;;;;;;;;;;;;;;;19.40;100.00;100336.75;5325872;27;20533;-68
2023/07/01 07:32:05;;;;;;;;;;;;;;;19.44;100.00;100330.03;5331248;27;19919;-67
2023/07/01 07:34:37;;;;;;;;;;;;;;;19.41;100.00;100325.09;5324972;27;19915;-68
2023/07/01 07:37:08;;;;;;;;;;;;;;;19.45;100.00;100333.50;5322099;27;19922;-68
2023/07/01 07:39:39;;;;;;;;;;;;;;;19.53;100.00;100330.66;5329638;27;20045;-68
2023/07/01 07:42:10;;;;;;;;;;;;;;;19.56;100.00;100329.44;5325111;27;19950;-66
2023/07/01 07:44:42;;;;;;;;;;;;;;;19.57;100.00;100325.75;5331644;27;19976;-69
2023/07/01 07:47:13;;;;;;;;;;;;;;;19.59;100.00;100329.03;5331341;27;19915;-65
2023/07/01 07:49:44;;;;;;;;;;;;;;;19.63;100.00;100328.44;5322215;27;19919;-68
2023/07/01 07:52:16;;;;;;;;;;;;;;;19.66;100.00;100321.91;5320005;27;20365;-65
2023/07/01 07:54:47;;;;;;;;;;;;;;;19.66;100.00;100321.91;5318372;27;19955;-68
2023/07/01 07:57:18;;;;;;;;;;;;;;;19.68;100.00;100311.91;5324541;27;19922;-64
2023/07/01 07:59:49;;;;;;;;;;;;;;;19.78;100.00;100324.81;5323452;27;19963;-65
2023/07/01 08:02:21;;;;;;;;;;;;;;;19.82;100.00;100318.06;5325437;27;20014;-67
2023/07/01 08:04:53;;;;;;;;;;;;;;;19.88;100.00;100314.56;5325533;27;20264;-67
2023/07/01 08:07:24;;;;;;;;;;;;;;;19.90;100.00;100323.97;5317285;27;20743;-66
2023/07/01 08:09:55;;;;;;;;;;;;;;;19.99;100.00;100319.28;5320561;27;19954;-64
2023/07/01 08:12:26;;;;;;;;;;;;;;;20.10;100.00;100316.00;5323057;27;19916;-66
2023/07/01 08:14:57;;;;;;;;;;;;;;;20.10;100.00;100313.34;5325197;27;20416;-66
2023/07/01 08:17:28;;;;;;;;;;;;;;;20.10;100.00;100313.34;5316894;27;20273;-66
2023/07/01 08:20:00;;;;;;;;;;;;;;;20.13;100.00;100312.94;5317903;27;19915;-68
2023/07/01 08:22:31;;;;;;;;;;;;;;;20.25;100.00;100322.94;5327625;27;19919;-67
2023/07/01 08:25:02;;;;;;;;;;;;;;;20.34;100.00;100313.72;5324573;27;20012;-68
2023/07/01 08:27:33;;;;;;;;;;;;;;;20.49;100.00;100317.00;5324327;27;19920;-68
2023/07/01 08:30:05;;;;;;;;;;;;;;;20.52;100.00;100321.91;5322350;27;19916;-65
2023/07/01 08:32:36;;;;;;;;;;;;;;;20.58;100.00;100320.28;5323734;27;19915;-69
2023/07/01 08:35:07;;;;;;;;;;;;;;;20.50;100.00;100315.19;5327234;27;20024;-66
2023/07/01 08:37:38;;;;;;;;;;;;;;;20.51;100.00;100316.81;5322651;27;19919;-66
2023/07/01 08:40:10;;;;;;;;;;;;;;;20.52;100.00;100311.25;5326083;27;20480;-66
2023/07/01 08:42:43;;;;;;;;;;;;;;;20.53;100.00;100312.91;5327792;27;20902;-66
2023/07/01 08:45:14;;;;;;;;;;;;;;;20.53;100.00;100315.59;5317982;27;20403;-65
2023/07/01 08:47:46;;;;;;;;;;;;;;;20.55;100.00;100312.69;5323034;27;19923;-67
2023/07/01 08:50:18;;;;;;;;;;;;;;;20.55;100.00;100313.50;5323060;27;19916;-67
2023/07/01 08:52:57;;;;;;;;;;;;;;;20.61;100.00;100310.03;5323593;27;19916;-65
2023/07/01 08:55:30;;;;;;;;;;;;;;;20.61;100.00;100306.56;5306348;27;19922;-68
2023/07/01 08:58:02;;;;;;;;;;;;;;;20.66;100.00;100312.06;5325594;27;20244;-66
2023/07/01 09:00:34;;;;;;;;;;;;;;;20.68;100.00;100309.19;5324716;27;20201;-67
2023/07/01 09:03:06;;;;;;;;;;;;;;;20.66;100.00;100304.06;5325379;27;19911;-64
2023/07/01 09:05:37;;;;;;;;;;;;;;;20.71;100.00;100311.44;5323188;27;19946;-67
2023/07/01 09:08:08;;;;;;;;;;;;;;;20.82;100.00;100311.59;5326618;27;19915;-67
2023/07/01 09:10:39;;;;;;;;;;;;;;;20.92;100.00;100308.50;5321790;27;20060;-67
2023/07/01 09:13:11;;;;;;;;;;;;;;;20.86;100.00;100312.81;5322153;27;20399;-67
2023/07/01 09:15:45;;;;;;;;;;;;;;;20.87;100.00;100313.63;5328951;27;19938;-67
2023/07/01 09:18:20;;;;;;;;;;;;;;;20.83;100.00;100313.22;5329166;27;20395;-67
2023/07/01 09:20:52;;;;;;;;;;;;;;;20.94;100.00;100311.75;5327607;27;20006;-68
2023/07/01 09:23:27;;;;;;;;;;;;;;;20.94;100.00;100309.09;5325083;27;19911;-66
2023/07/01 09:26:20;;;;;;;;;;;;;;;21.00;100.00;100305.59;5327193;27;19930;-65
2023/07/01 09:28:51;;;;;;;;;;;;;;;21.10;100.00;100307.78;5319086;27;20496;-67
2023/07/01 09:31:23;;;;;;;;;;;;;;;21.24;100.00;100300.53;5319242;27;19919;-63
2023/07/01 09:33:58;;;;;;;;;;;;;;;21.23;100.00;100289.06;5310200;27;19911;-68
2023/07/01 09:36:30;;;;;;;;;;;;;;;21.24;100.00;100297.88;5322371;27;19915;-67
2023/07/01 09:39:04;;;;;;;;;;;;;;;21.29;100.00;100290.06;5321567;27;19919;-67
2023/07/01 09:41:36;;;;;;;;;;;;;;;21.29;100.00;100293.56;5326550;27;19907;-67
2023/07/01 09:44:14;;;;;;;;;;;;;;;21.30;100.00;100289.06;5322426;27;19915;-68
2023/07/01 09:46:50;;;;;;;;;;;;;;;21.39;100.00;100290.44;5316667;28;19923;-67
2023/07/01 09:49:34;;;;;;;;;;;;;;;21.40;100.00;100293.91;5319253;27;19919;-68
2023/07/01 09:52:06;;;;;;;;;;;;;;;21.43;100.00;100288.16;5321420;27;20293;-65
2023/07/01 09:54:38;;;;;;;;;;;;;;;21.41;100.00;100287.59;5314346;27;20048;-69
2023/07/01 09:57:09;;;;;;;;;;;;;;;21.46;100.00;100290.41;5329587;28;19914;-69
2023/07/01 09:59:40;;;;;;;;;;;;;;;21.41;100.00;100291.06;5327794;27;19923;-67
2023/07/01 10:02:12;;;;;;;;;;;;;;;21.41;100.00;100290.25;5310529;28;19917;-68
2023/07/01 10:04:43;;;;;;;;;;;;;;;21.39;100.00;100287.78;5322935;28;19920;-66
2023/07/01 10:07:14;;;;;;;;;;;;;;;21.37;100.00;100287.19;5329577;27;20452;-67
2023/07/01 10:09:46;;;;;;;;;;;;;;;21.40;100.00;100283.25;5330882;27;19920;-66
2023/07/01 10:12:18;;;;;;;;;;;;;;;21.35;100.00;100282.06;5323823;27;19920;-68
2023/07/01 10:14:52;;;;;;;;;;;;;;;21.46;100.00;100288.56;5326644;27;19922;-65
2023/07/01 10:17:43;;;;;;;;;;;;;;;21.48;100.00;100283.84;5327072;27;19943;-71
2023/07/01 10:20:23;;;;;;;;;;;;;;;21.55;100.00;100284.59;5323804;27;20227;-66
2023/07/01 10:22:58;;;;;;;;;;;;;;;21.54;100.00;100282.16;5327613;27;19959;-66
2023/07/01 10:25:32;;;;;;;;;;;;;;;21.58;100.00;100280.69;5328947;27;19969;-66
2023/07/01 10:28:10;;;;;;;;;;;;;;;21.61;100.00;100281.06;5326947;27;19972;-68
2023/07/01 10:30:42;;;;;;;;;;;;;;;21.57;100.00;100274.53;5332085;27;19950;-69
2023/07/01 10:33:35;;;;;;;;;;;;;;;21.67;100.00;100270.56;5332341;27;19996;-65
2023/07/01 10:36:07;;;;;;;;;;;;;;;21.78;100.00;100269.88;5331037;27;19915;-67
2023/07/01 10:38:39;;;;;;;;;;;;;;;21.93;100.00;100269.53;5323478;27;19919;-66
2023/07/01 10:41:10;;;;;;;;;;;;;;;22.02;100.00;100273.56;5331168;27;19955;-67
2023/07/01 10:43:41;;;;;;;;;;;;;;;22.11;100.00;100272.25;5327455;27;20018;-65
2023/07/01 10:46:19;;;;;;;;;;;;;;;22.24;100.00;100268.69;5324316;27;19911;-68
2023/07/01 10:49:02;;;;;;;;;;;;;;;22.35;100.00;100265.28;5326104;27;19911;-66
2023/07/01 10:51:54;;;;;;;;;;;;;;;22.38;100.00;100270.16;5325373;27;19969;-67
2023/07/01 10:54:29;;;;;;;;;;;;;;;22.37;100.00;100268.53;5293776;27;19929;-66
2023/07/01 10:57:14;;;;;;;;;;;;;;;22.41;100.00;100264.38;5332340;27;19968;-66
2023/07/01 10:59:46;;;;;;;;;;;;;;;22.46;100.00;100269.03;5328818;27;19964;-66
2023/07/01 11:02:36;;;;;;;;;;;;;;;22.55;100.00;100260.53;5325875;27;20431;-68
2023/07/01 11:05:08;;;;;;;;;;;;;;;22.71;100.00;100264.44;5327531;27;20379;-66
2023/07/01 11:07:41;;;;;;;;;;;;;;;22.79;100.00;100266.00;5323284;27;19931;-69
2023/07/01 11:10:12;;;;;;;;;;;;;;;22.91;100.00;100263.38;5327257;27;19964;-68
2023/07/01 11:12:43;;;;;;;;;;;;;;;23.15;100.00;100269.69;5323997;27;19916;-66
2023/07/01 11:15:17;;;;;;;;;;;;;;;23.27;100.00;100267.88;5328574;27;19911;-65
2023/07/01 11:17:53;;;;;;;;;;;;;;;23.26;100.00;100258.19;5330274;27;19923;-65
2023/07/01 11:20:24;;;;;;;;;;;;;;;23.23;100.00;100261.34;5328312;27;19971;-65
2023/07/01 11:22:55;;;;;;;;;;;;;;;23.25;100.00;100256.56;5329169;27;20020;-66
2023/07/01 11:25:26;;;;;;;;;;;;;;;23.29;100.00;100257.75;5328653;27;19926;-65
2023/07/01 11:27:58;;;;;;;;;;;;;;;23.30;100.00;100260.22;5324519;27;19995;-67
2023/07/01 11:30:30;;;;;;;;;;;;;;;23.39;100.00;100255.34;5324708;27;20022;-65
2023/07/01 11:33:14;;;;;;;;;;;;;;;23.44;100.00;100251.97;5322364;27;19916;-67
2023/07/01 11:35:52;;;;;;;;;;;;;;;23.43;100.00;100247.69;5322895;27;19923;-67
2023/07/01 11:38:25;;;;;;;;;;;;;;;23.47;100.00;100252.34;5322821;27;19920;-67
2023/07/01 11:40:56;;;;;;;;;;;;;;;23.53;100.00;100261.31;5322877;27;19912;-66
2023/07/01 11:43:28;;;;;;;;;;;;;;;23.42;100.00;100260.22;5314631;27;20557;-66
2023/07/01 11:45:59;;;;;;;;;;;;;;;23.32;100.00;100262.63;5316652;27;20052;-67
2023/07/01 11:48:31;;;;;;;;;;;;;;;23.33;100.00;100255.44;5325307;27;20034;-67
2023/07/01 11:51:02;;;;;;;;;;;;;;;23.39;100.00;100263.34;5329254;27;20359;-68
2023/07/01 11:53:34;;;;;;;;;;;;;;;23.37;100.00;100262.75;5325416;27;20722;-67
2023/07/01 11:56:15;;;;;;;;;;;;;;;23.41;100.00;100265.78;5325405;27;20854;-67
2023/07/01 11:58:49;;;;;;;;;;;;;;;23.49;100.00;100265.50;5324077;27;20377;-68
2023/07/01 12:01:24;;;;;;;;;;;;;;;23.57;100.00;100259.00;5299929;27;19964;-66
2023/07/01 12:03:55;;;;;;;;;;;;;;;23.68;100.00;100266.25;5317068;27;19912;-69
2023/07/01 12:06:27;;;;;;;;;;;;;;;23.70;100.00;100256.94;5328559;27;19915;-68
2023/07/01 12:09:03;;;;;;;;;;;;;;;23.75;100.00;100258.91;5313926;27;20292;-68
2023/07/01 12:11:45;;;;;;;;;;;;;;;23.85;100.00;100255.66;5324519;27;19936;-65
2023/07/01 12:14:21;;;;;;;;;;;;;;;23.88;100.00;100256.03;5331165;27;19949;-66
2023/07/01 12:16:53;;;;;;;;;;;;;;;23.74;100.00;100259.97;5326976;27;19919;-67
2023/07/01 12:19:25;;;;;;;;;;;;;;;23.68;100.00;100258.22;5321715;27;19987;-65
2023/07/01 12:21:57;;;;;;;;;;;;;;;23.72;100.00;100262.88;5320467;27;19998;-67
2023/07/01 12:24:29;;;;;;;;;;;;;;;23.71;100.00;100268.44;5328147;27;19919;-67
2023/07/01 12:27:03;;;;;;;;;;;;;;;23.57;100.00;100277.72;5325163;27;20425;-66
2023/07/01 12:29:34;;;;;;;;;;;;;;;23.35;100.00;100282.75;5321970;27;19923;-65
2023/07/01 12:32:09;;;;;;;;;;;;;;;23.17;100.00;100278.28;5323610;27;19915;-66
2023/07/01 12:34:40;;;;;;;;;;;;;;;23.04;100.00;100288.09;5323544;27;20273;-67
2023/07/01 12:37:11;;;;;;;;;;;;;;;23.00;100.00;100292.28;5320665;27;20038;-68
2023/07/01 12:39:44;;;;;;;;;;;;;;;23.01;100.00;100291.22;5328465;27;19937;-65
2023/07/01 12:42:16;;;;;;;;;;;;;;;22.97;100.00;100298.06;5323524;27;19915;-64
2023/07/01 12:44:47;;;;;;;;;;;;;;;22.87;100.00;100295.06;5321578;27;19922;-65
2023/07/01 12:47:19;;;;;;;;;;;;;;;22.83;100.00;100299.22;5331543;27;19912;-67
2023/07/01 12:49:51;;;;;;;;;;;;;;;22.81;100.00;100296.78;5326769;27;20395;-64
2023/07/01 12:52:22;;;;;;;;;;;;;;;22.82;100.00;100294.94;5324542;27;19915;-65
2023/07/01 12:54:54;;;;;;;;;;;;;;;22.92;100.00;100305.09;5324839;27;19922;-65
2023/07/01 12:57:25;;;;;;;;;;;;;;;22.82;100.00;100298.41;5322929;27;19911;-64